EFSA

Savonlinna Airport

Savonlinna, Finland
METAR EFSA 161020Z AUTO 12007KT 9999 OVC034 M00/M02 Q1000
Observed Flight Rules
Dec-16 @ 10:20 UTC (30 minutes ago) Visual Flight Rules
Wind Visibility Clouds
120° at 7 knots 10,000+ meters
  • Overcast at 3,400' AGL
Temperatures Readings
Current 0°C / 32°F
Dewpoint -2°C / 28°F
Humidity 87%
Altimeter 29.53" Hg
Pressure 1000 hPa
Elevation 95
METAR EFSA 161020Z AUTO 12007KT 9999 OVC034 M00/M02 Q1000
Observed Flight Rules
Dec-16 @ 10:20 UTC
(30 minutes ago)
VFR
Wind Visibility
120° at 7 knots 10,000+ meters
Clouds
  • Overcast at 3,400' AGL
Temperature Dewpoint
0°C / 32°F -2°C / 28°F
Humidity Altimeter Pressure
87% 29.53" Hg 1000 hPa